sensor_id;sensor_type;location;lat;lon;timestamp;P1;durP1;ratioP1;P2;durP2;ratioP2
635;SDS011;302;50.206;8.196;2023-05-25T00:02:02;4.10;;;3.70;;
635;SDS011;302;50.206;8.196;2023-05-25T00:04:32;5.38;;;3.53;;
635;SDS011;302;50.206;8.196;2023-05-25T00:07:00;5.32;;;3.75;;
635;SDS011;302;50.206;8.196;2023-05-25T00:09:26;5.17;;;3.77;;
635;SDS011;302;50.206;8.196;2023-05-25T00:11:51;4.90;;;3.20;;
635;SDS011;302;50.206;8.196;2023-05-25T00:14:16;5.50;;;3.60;;
635;SDS011;302;50.206;8.196;2023-05-25T00:16:41;4.37;;;3.53;;
635;SDS011;302;50.206;8.196;2023-05-25T00:19:08;6.25;;;3.50;;
635;SDS011;302;50.206;8.196;2023-05-25T00:21:37;5.22;;;3.78;;
635;SDS011;302;50.206;8.196;2023-05-25T00:24:03;8.30;;;4.43;;
635;SDS011;302;50.206;8.196;2023-05-25T00:26:28;8.10;;;5.20;;
635;SDS011;302;50.206;8.196;2023-05-25T00:28:53;4.30;;;3.90;;
635;SDS011;302;50.206;8.196;2023-05-25T00:31:18;6.05;;;4.95;;
635;SDS011;302;50.206;8.196;2023-05-25T00:33:43;4.90;;;4.40;;
635;SDS011;302;50.206;8.196;2023-05-25T00:36:09;5.73;;;4.60;;
635;SDS011;302;50.206;8.196;2023-05-25T00:38:34;5.03;;;3.90;;
635;SDS011;302;50.206;8.196;2023-05-25T00:40:59;4.78;;;3.80;;
635;SDS011;302;50.206;8.196;2023-05-25T00:43:24;7.53;;;5.32;;
635;SDS011;302;50.206;8.196;2023-05-25T00:45:50;5.40;;;4.30;;
635;SDS011;302;50.206;8.196;2023-05-25T00:48:16;5.10;;;3.80;;
635;SDS011;302;50.206;8.196;2023-05-25T00:53:44;6.50;;;5.35;;
635;SDS011;302;50.206;8.196;2023-05-25T00:56:20;7.03;;;5.03;;
635;SDS011;302;50.206;8.196;2023-05-25T00:58:47;16.30;;;6.53;;
635;SDS011;302;50.206;8.196;2023-05-25T01:01:14;5.90;;;5.30;;
635;SDS011;302;50.206;8.196;2023-05-25T01:03:40;6.20;;;5.30;;
635;SDS011;302;50.206;8.196;2023-05-25T01:06:08;9.40;;;5.60;;
635;SDS011;302;50.206;8.196;2023-05-25T01:08:33;5.45;;;4.90;;
635;SDS011;302;50.206;8.196;2023-05-25T01:10:59;6.05;;;5.20;;
635;SDS011;302;50.206;8.196;2023-05-25T01:13:27;7.82;;;5.63;;
635;SDS011;302;50.206;8.196;2023-05-25T01:15:52;8.47;;;5.47;;
635;SDS011;302;50.206;8.196;2023-05-25T01:18:17;7.23;;;6.07;;
635;SDS011;302;50.206;8.196;2023-05-25T01:23:29;5.60;;;5.00;;
635;SDS011;302;50.206;8.196;2023-05-25T01:25:57;8.55;;;6.07;;
635;SDS011;302;50.206;8.196;2023-05-25T01:28:24;8.82;;;5.80;;
635;SDS011;302;50.206;8.196;2023-05-25T01:30:50;8.38;;;6.43;;
635;SDS011;302;50.206;8.196;2023-05-25T01:33:16;5.77;;;5.17;;
635;SDS011;302;50.206;8.196;2023-05-25T01:35:42;9.77;;;5.95;;
635;SDS011;302;50.206;8.196;2023-05-25T01:38:08;6.00;;;5.40;;
635;SDS011;302;50.206;8.196;2023-05-25T01:40:33;9.43;;;5.43;;
635;SDS011;302;50.206;8.196;2023-05-25T01:43:01;8.55;;;5.75;;
635;SDS011;302;50.206;8.196;2023-05-25T01:45:26;6.70;;;5.23;;
635;SDS011;302;50.206;8.196;2023-05-25T01:53:18;10.30;;;6.50;;
635;SDS011;302;50.206;8.196;2023-05-25T01:56:01;9.95;;;6.78;;
635;SDS011;302;50.206;8.196;2023-05-25T01:58:27;7.88;;;6.20;;
635;SDS011;302;50.206;8.196;2023-05-25T02:00:52;7.82;;;6.72;;
635;SDS011;302;50.206;8.196;2023-05-25T02:03:17;9.13;;;6.80;;
635;SDS011;302;50.206;8.196;2023-05-25T02:05:44;13.43;;;6.60;;
635;SDS011;302;50.206;8.196;2023-05-25T02:08:10;8.07;;;7.28;;
635;SDS011;302;50.206;8.196;2023-05-25T02:10:35;9.67;;;7.30;;
635;SDS011;302;50.206;8.196;2023-05-25T02:13:00;9.20;;;6.60;;
635;SDS011;302;50.206;8.196;2023-05-25T02:15:30;12.88;;;6.82;;
635;SDS011;302;50.206;8.196;2023-05-25T02:17:56;7.78;;;6.55;;
635;SDS011;302;50.206;8.196;2023-05-25T02:20:21;9.10;;;6.40;;
635;SDS011;302;50.206;8.196;2023-05-25T02:22:46;11.93;;;7.53;;
635;SDS011;302;50.206;8.196;2023-05-25T02:25:12;10.55;;;7.25;;
635;SDS011;302;50.206;8.196;2023-05-25T02:27:37;11.38;;;6.95;;
635;SDS011;302;50.206;8.196;2023-05-25T02:30:02;7.82;;;6.60;;
635;SDS011;302;50.206;8.196;2023-05-25T02:32:27;9.57;;;6.90;;
635;SDS011;302;50.206;8.196;2023-05-25T02:34:53;9.63;;;6.63;;
635;SDS011;302;50.206;8.196;2023-05-25T02:37:18;8.80;;;7.40;;
635;SDS011;302;50.206;8.196;2023-05-25T02:39:44;8.17;;;6.63;;
635;SDS011;302;50.206;8.196;2023-05-25T02:42:09;6.77;;;6.07;;
635;SDS011;302;50.206;8.196;2023-05-25T02:44:34;8.53;;;6.73;;
635;SDS011;302;50.206;8.196;2023-05-25T02:46:59;8.13;;;5.73;;
635;SDS011;302;50.206;8.196;2023-05-25T02:49:24;8.67;;;6.07;;
635;SDS011;302;50.206;8.196;2023-05-25T02:51:50;11.10;;;6.20;;
635;SDS011;302;50.206;8.196;2023-05-25T02:54:15;9.20;;;6.30;;
635;SDS011;302;50.206;8.196;2023-05-25T02:56:41;10.10;;;5.97;;
635;SDS011;302;50.206;8.196;2023-05-25T02:59:06;7.57;;;6.70;;
635;SDS011;302;50.206;8.196;2023-05-25T03:01:31;7.10;;;6.27;;
635;SDS011;302;50.206;8.196;2023-05-25T03:03:58;6.43;;;5.40;;
635;SDS011;302;50.206;8.196;2023-05-25T03:06:23;7.10;;;6.30;;
635;SDS011;302;50.206;8.196;2023-05-25T03:08:50;9.13;;;7.00;;
635;SDS011;302;50.206;8.196;2023-05-25T03:11:15;6.60;;;5.53;;
635;SDS011;302;50.206;8.196;2023-05-25T03:13:40;11.13;;;5.83;;
635;SDS011;302;50.206;8.196;2023-05-25T03:16:05;10.10;;;5.97;;
635;SDS011;302;50.206;8.196;2023-05-25T03:18:30;7.80;;;6.57;;
635;SDS011;302;50.206;8.196;2023-05-25T03:20:56;8.67;;;6.00;;
635;SDS011;302;50.206;8.196;2023-05-25T03:23:21;8.53;;;7.03;;
635;SDS011;302;50.206;8.196;2023-05-25T03:25:46;10.18;;;6.38;;
635;SDS011;302;50.206;8.196;2023-05-25T03:28:11;9.33;;;6.60;;
635;SDS011;302;50.206;8.196;2023-05-25T03:30:36;7.68;;;6.20;;
635;SDS011;302;50.206;8.196;2023-05-25T03:33:01;7.53;;;6.70;;
635;SDS011;302;50.206;8.196;2023-05-25T03:35:27;9.47;;;6.90;;
635;SDS011;302;50.206;8.196;2023-05-25T03:37:52;7.20;;;6.27;;
635;SDS011;302;50.206;8.196;2023-05-25T03:40:17;8.77;;;6.60;;
635;SDS011;302;50.206;8.196;2023-05-25T03:42:42;8.03;;;6.00;;
635;SDS011;302;50.206;8.196;2023-05-25T03:45:07;8.57;;;6.78;;
635;SDS011;302;50.206;8.196;2023-05-25T03:47:33;8.80;;;6.13;;
635;SDS011;302;50.206;8.196;2023-05-25T03:49:59;11.65;;;6.30;;
635;SDS011;302;50.206;8.196;2023-05-25T03:52:24;10.53;;;6.53;;
635;SDS011;302;50.206;8.196;2023-05-25T03:54:49;7.30;;;6.60;;
635;SDS011;302;50.206;8.196;2023-05-25T03:57:15;9.02;;;6.38;;
635;SDS011;302;50.206;8.196;2023-05-25T03:59:40;8.50;;;6.40;;
635;SDS011;302;50.206;8.196;2023-05-25T04:02:05;8.23;;;6.75;;
635;SDS011;302;50.206;8.196;2023-05-25T04:04:30;6.93;;;5.70;;
635;SDS011;302;50.206;8.196;2023-05-25T04:06:55;8.65;;;6.53;;
635;SDS011;302;50.206;8.196;2023-05-25T04:09:20;7.60;;;5.80;;
635;SDS011;302;50.206;8.196;2023-05-25T04:11:45;8.60;;;6.70;;
635;SDS011;302;50.206;8.196;2023-05-25T04:14:11;8.90;;;6.17;;
635;SDS011;302;50.206;8.196;2023-05-25T04:16:36;7.27;;;6.57;;
635;SDS011;302;50.206;8.196;2023-05-25T04:19:01;8.10;;;6.70;;
635;SDS011;302;50.206;8.196;2023-05-25T04:21:26;8.93;;;6.40;;
635;SDS011;302;50.206;8.196;2023-05-25T04:23:52;8.33;;;7.30;;
635;SDS011;302;50.206;8.196;2023-05-25T04:26:17;9.10;;;6.60;;
635;SDS011;302;50.206;8.196;2023-05-25T04:28:42;10.20;;;7.20;;
635;SDS011;302;50.206;8.196;2023-05-25T04:31:07;9.67;;;6.37;;
635;SDS011;302;50.206;8.196;2023-05-25T04:33:33;7.47;;;6.17;;
635;SDS011;302;50.206;8.196;2023-05-25T04:36:02;7.10;;;6.18;;
635;SDS011;302;50.206;8.196;2023-05-25T04:38:27;8.23;;;7.13;;
635;SDS011;302;50.206;8.196;2023-05-25T04:40:54;8.13;;;6.00;;
635;SDS011;302;50.206;8.196;2023-05-25T04:43:21;17.50;;;6.78;;
635;SDS011;302;50.206;8.196;2023-05-25T04:45:46;10.15;;;8.13;;
635;SDS011;302;50.206;8.196;2023-05-25T04:48:12;10.00;;;7.07;;
635;SDS011;302;50.206;8.196;2023-05-25T04:50:37;9.30;;;6.97;;
635;SDS011;302;50.206;8.196;2023-05-25T04:53:04;8.52;;;6.50;;
635;SDS011;302;50.206;8.196;2023-05-25T04:55:29;8.50;;;6.13;;
635;SDS011;302;50.206;8.196;2023-05-25T04:57:54;9.63;;;7.47;;
635;SDS011;302;50.206;8.196;2023-05-25T05:00:19;8.20;;;5.70;;
635;SDS011;302;50.206;8.196;2023-05-25T05:02:45;8.90;;;7.10;;
635;SDS011;302;50.206;8.196;2023-05-25T05:05:10;8.48;;;6.50;;
635;SDS011;302;50.206;8.196;2023-05-25T05:07:36;9.23;;;6.43;;
635;SDS011;302;50.206;8.196;2023-05-25T05:10:02;7.95;;;6.38;;
635;SDS011;302;50.206;8.196;2023-05-25T05:12:27;8.43;;;6.83;;
635;SDS011;302;50.206;8.196;2023-05-25T05:14:52;7.00;;;6.30;;
635;SDS011;302;50.206;8.196;2023-05-25T05:17:18;8.40;;;7.03;;
635;SDS011;302;50.206;8.196;2023-05-25T05:19:43;8.37;;;7.33;;
635;SDS011;302;50.206;8.196;2023-05-25T05:22:08;7.22;;;6.30;;
635;SDS011;302;50.206;8.196;2023-05-25T05:24:33;8.10;;;5.97;;
635;SDS011;302;50.206;8.196;2023-05-25T05:26:59;8.10;;;6.80;;
635;SDS011;302;50.206;8.196;2023-05-25T05:29:25;9.73;;;7.85;;
635;SDS011;302;50.206;8.196;2023-05-25T05:31:53;11.80;;;8.82;;
635;SDS011;302;50.206;8.196;2023-05-25T05:34:18;14.50;;;8.80;;
635;SDS011;302;50.206;8.196;2023-05-25T05:36:43;12.70;;;8.43;;
635;SDS011;302;50.206;8.196;2023-05-25T05:39:08;14.98;;;9.85;;
635;SDS011;302;50.206;8.196;2023-05-25T05:41:33;11.40;;;8.93;;
635;SDS011;302;50.206;8.196;2023-05-25T05:43:58;15.07;;;9.48;;
635;SDS011;302;50.206;8.196;2023-05-25T05:46:25;10.80;;;9.70;;
635;SDS011;302;50.206;8.196;2023-05-25T05:48:50;13.88;;;9.98;;
635;SDS011;302;50.206;8.196;2023-05-25T05:51:15;14.05;;;9.35;;
635;SDS011;302;50.206;8.196;2023-05-25T05:53:40;17.60;;;9.93;;
635;SDS011;302;50.206;8.196;2023-05-25T05:56:11;14.07;;;9.47;;
635;SDS011;302;50.206;8.196;2023-05-25T05:58:40;10.45;;;9.13;;
635;SDS011;302;50.206;8.196;2023-05-25T06:01:05;12.90;;;8.40;;
635;SDS011;302;50.206;8.196;2023-05-25T06:03:30;11.82;;;8.90;;
635;SDS011;302;50.206;8.196;2023-05-25T06:05:55;12.43;;;9.73;;
635;SDS011;302;50.206;8.196;2023-05-25T06:08:20;13.43;;;10.80;;
635;SDS011;302;50.206;8.196;2023-05-25T06:10:46;13.05;;;9.18;;
635;SDS011;302;50.206;8.196;2023-05-25T06:13:11;11.60;;;9.60;;
635;SDS011;302;50.206;8.196;2023-05-25T06:15:36;9.70;;;8.70;;
635;SDS011;302;50.206;8.196;2023-05-25T06:18:01;12.53;;;10.27;;
635;SDS011;302;50.206;8.196;2023-05-25T06:20:27;10.70;;;8.63;;
635;SDS011;302;50.206;8.196;2023-05-25T06:22:52;11.27;;;9.45;;
635;SDS011;302;50.206;8.196;2023-05-25T06:25:17;10.50;;;9.40;;
635;SDS011;302;50.206;8.196;2023-05-25T06:27:42;11.87;;;8.00;;
635;SDS011;302;50.206;8.196;2023-05-25T06:30:08;10.93;;;9.25;;
635;SDS011;302;50.206;8.196;2023-05-25T06:32:33;11.77;;;8.77;;
635;SDS011;302;50.206;8.196;2023-05-25T06:34:58;11.77;;;9.10;;
635;SDS011;302;50.206;8.196;2023-05-25T06:37:23;13.40;;;9.00;;
635;SDS011;302;50.206;8.196;2023-05-25T06:39:49;9.40;;;8.50;;
635;SDS011;302;50.206;8.196;2023-05-25T06:42:14;10.57;;;7.50;;
635;SDS011;302;50.206;8.196;2023-05-25T06:44:39;10.30;;;8.23;;
635;SDS011;302;50.206;8.196;2023-05-25T06:47:04;10.67;;;7.57;;
635;SDS011;302;50.206;8.196;2023-05-25T06:49:30;10.50;;;8.60;;
635;SDS011;302;50.206;8.196;2023-05-25T06:51:55;9.20;;;8.30;;
635;SDS011;302;50.206;8.196;2023-05-25T06:54:20;10.13;;;8.60;;
635;SDS011;302;50.206;8.196;2023-05-25T06:56:45;10.73;;;9.30;;
635;SDS011;302;50.206;8.196;2023-05-25T06:59:10;11.57;;;9.57;;
635;SDS011;302;50.206;8.196;2023-05-25T07:01:36;10.60;;;8.33;;
635;SDS011;302;50.206;8.196;2023-05-25T07:04:01;11.33;;;8.57;;
635;SDS011;302;50.206;8.196;2023-05-25T07:06:26;10.82;;;8.15;;
635;SDS011;302;50.206;8.196;2023-05-25T07:08:51;11.63;;;10.25;;
635;SDS011;302;50.206;8.196;2023-05-25T07:11:16;11.03;;;9.93;;
635;SDS011;302;50.206;8.196;2023-05-25T07:13:44;11.10;;;8.80;;
635;SDS011;302;50.206;8.196;2023-05-25T07:16:09;13.03;;;8.40;;
635;SDS011;302;50.206;8.196;2023-05-25T07:18:37;9.97;;;8.13;;
635;SDS011;302;50.206;8.196;2023-05-25T07:21:02;9.63;;;8.57;;
635;SDS011;302;50.206;8.196;2023-05-25T07:23:27;10.40;;;7.80;;
635;SDS011;302;50.206;8.196;2023-05-25T07:25:52;11.47;;;8.27;;
635;SDS011;302;50.206;8.196;2023-05-25T07:28:17;10.03;;;7.43;;
635;SDS011;302;50.206;8.196;2023-05-25T07:30:43;9.60;;;8.07;;
635;SDS011;302;50.206;8.196;2023-05-25T07:33:08;8.83;;;7.50;;
635;SDS011;302;50.206;8.196;2023-05-25T07:35:33;8.70;;;6.90;;
635;SDS011;302;50.206;8.196;2023-05-25T07:38:00;9.65;;;7.03;;
635;SDS011;302;50.206;8.196;2023-05-25T07:40:25;8.43;;;7.63;;
635;SDS011;302;50.206;8.196;2023-05-25T07:42:51;7.93;;;6.90;;
635;SDS011;302;50.206;8.196;2023-05-25T07:45:16;8.40;;;6.70;;
635;SDS011;302;50.206;8.196;2023-05-25T07:47:42;6.47;;;5.88;;
635;SDS011;302;50.206;8.196;2023-05-25T07:50:07;7.82;;;7.03;;
635;SDS011;302;50.206;8.196;2023-05-25T07:52:32;7.40;;;6.47;;
635;SDS011;302;50.206;8.196;2023-05-25T07:54:57;7.03;;;6.07;;
635;SDS011;302;50.206;8.196;2023-05-25T07:57:22;10.10;;;6.72;;
635;SDS011;302;50.206;8.196;2023-05-25T07:59:47;6.75;;;6.03;;
635;SDS011;302;50.206;8.196;2023-05-25T08:02:13;7.63;;;6.80;;
635;SDS011;302;50.206;8.196;2023-05-25T08:04:38;7.00;;;6.30;;
635;SDS011;302;50.206;8.196;2023-05-25T08:07:03;8.38;;;6.10;;
635;SDS011;302;50.206;8.196;2023-05-25T08:09:28;8.70;;;7.80;;
635;SDS011;302;50.206;8.196;2023-05-25T08:11:53;8.40;;;7.00;;
635;SDS011;302;50.206;8.196;2023-05-25T08:14:18;9.38;;;6.10;;
635;SDS011;302;50.206;8.196;2023-05-25T08:16:44;8.73;;;6.57;;
635;SDS011;302;50.206;8.196;2023-05-25T08:19:10;8.93;;;8.03;;
635;SDS011;302;50.206;8.196;2023-05-25T08:21:35;7.05;;;5.88;;
635;SDS011;302;50.206;8.196;2023-05-25T08:24:01;5.43;;;4.95;;
635;SDS011;302;50.206;8.196;2023-05-25T08:26:29;7.35;;;6.15;;
635;SDS011;302;50.206;8.196;2023-05-25T08:28:55;8.40;;;5.63;;
635;SDS011;302;50.206;8.196;2023-05-25T08:31:20;7.17;;;6.03;;
635;SDS011;302;50.206;8.196;2023-05-25T08:33:45;8.30;;;5.60;;
635;SDS011;302;50.206;8.196;2023-05-25T08:36:10;5.23;;;4.73;;
635;SDS011;302;50.206;8.196;2023-05-25T08:38:36;7.17;;;5.40;;
635;SDS011;302;50.206;8.196;2023-05-25T08:41:04;6.80;;;5.60;;
635;SDS011;302;50.206;8.196;2023-05-25T08:43:31;6.63;;;5.85;;
635;SDS011;302;50.206;8.196;2023-05-25T08:45:57;7.78;;;6.00;;
635;SDS011;302;50.206;8.196;2023-05-25T08:48:23;5.53;;;4.95;;
635;SDS011;302;50.206;8.196;2023-05-25T08:50:49;5.82;;;5.25;;
635;SDS011;302;50.206;8.196;2023-05-25T08:53:15;6.85;;;5.10;;
635;SDS011;302;50.206;8.196;2023-05-25T08:55:40;8.87;;;6.33;;
635;SDS011;302;50.206;8.196;2023-05-25T08:58:17;6.43;;;5.82;;
635;SDS011;302;50.206;8.196;2023-05-25T09:00:46;6.82;;;5.40;;
635;SDS011;302;50.206;8.196;2023-05-25T09:03:14;6.43;;;5.00;;
635;SDS011;302;50.206;8.196;2023-05-25T09:05:39;5.95;;;5.20;;
635;SDS011;302;50.206;8.196;2023-05-25T09:08:05;5.47;;;4.67;;
635;SDS011;302;50.206;8.196;2023-05-25T09:10:34;5.80;;;5.03;;
635;SDS011;302;50.206;8.196;2023-05-25T09:13:00;7.80;;;5.47;;
635;SDS011;302;50.206;8.196;2023-05-25T09:15:25;5.70;;;5.10;;
635;SDS011;302;50.206;8.196;2023-05-25T09:17:50;8.43;;;4.70;;
635;SDS011;302;50.206;8.196;2023-05-25T09:20:15;6.63;;;4.85;;
635;SDS011;302;50.206;8.196;2023-05-25T09:22:42;5.53;;;4.90;;
635;SDS011;302;50.206;8.196;2023-05-25T09:25:08;5.13;;;4.43;;
635;SDS011;302;50.206;8.196;2023-05-25T09:27:34;4.55;;;4.15;;
635;SDS011;302;50.206;8.196;2023-05-25T09:30:01;5.03;;;4.28;;
635;SDS011;302;50.206;8.196;2023-05-25T09:32:26;6.33;;;4.57;;
635;SDS011;302;50.206;8.196;2023-05-25T09:34:51;5.03;;;4.57;;
635;SDS011;302;50.206;8.196;2023-05-25T09:37:19;4.85;;;4.45;;
635;SDS011;302;50.206;8.196;2023-05-25T09:39:44;5.60;;;4.40;;
635;SDS011;302;50.206;8.196;2023-05-25T09:42:10;4.60;;;4.20;;
635;SDS011;302;50.206;8.196;2023-05-25T09:44:35;5.47;;;4.93;;
635;SDS011;302;50.206;8.196;2023-05-25T09:47:01;5.33;;;4.83;;
635;SDS011;302;50.206;8.196;2023-05-25T09:49:26;5.20;;;4.70;;
635;SDS011;302;50.206;8.196;2023-05-25T09:51:51;3.63;;;3.33;;
635;SDS011;302;50.206;8.196;2023-05-25T09:54:17;4.93;;;4.43;;
635;SDS011;302;50.206;8.196;2023-05-25T09:56:42;5.47;;;4.47;;
635;SDS011;302;50.206;8.196;2023-05-25T09:59:07;4.47;;;4.00;;
635;SDS011;302;50.206;8.196;2023-05-25T10:01:32;5.10;;;4.60;;
635;SDS011;302;50.206;8.196;2023-05-25T10:03:58;5.07;;;4.47;;
635;SDS011;302;50.206;8.196;2023-05-25T10:06:24;4.73;;;4.20;;
635;SDS011;302;50.206;8.196;2023-05-25T10:08:49;5.07;;;4.60;;
635;SDS011;302;50.206;8.196;2023-05-25T10:11:15;5.10;;;4.00;;
635;SDS011;302;50.206;8.196;2023-05-25T10:13:44;4.00;;;3.60;;
635;SDS011;302;50.206;8.196;2023-05-25T10:16:09;6.18;;;4.20;;
635;SDS011;302;50.206;8.196;2023-05-25T10:18:42;5.78;;;3.90;;
635;SDS011;302;50.206;8.196;2023-05-25T10:21:11;5.35;;;4.85;;
635;SDS011;302;50.206;8.196;2023-05-25T10:23:38;5.32;;;3.85;;
635;SDS011;302;50.206;8.196;2023-05-25T10:26:05;7.35;;;4.38;;
635;SDS011;302;50.206;8.196;2023-05-25T10:28:35;3.90;;;3.47;;
635;SDS011;302;50.206;8.196;2023-05-25T10:31:00;4.15;;;3.75;;
635;SDS011;302;50.206;8.196;2023-05-25T10:33:27;6.75;;;3.97;;
635;SDS011;302;50.206;8.196;2023-05-25T10:35:53;4.97;;;3.97;;
635;SDS011;302;50.206;8.196;2023-05-25T10:38:18;8.20;;;3.95;;
635;SDS011;302;50.206;8.196;2023-05-25T10:40:45;4.43;;;4.03;;
635;SDS011;302;50.206;8.196;2023-05-25T10:43:14;6.70;;;3.72;;
635;SDS011;302;50.206;8.196;2023-05-25T10:45:40;5.13;;;4.68;;
635;SDS011;302;50.206;8.196;2023-05-25T10:48:06;4.07;;;3.67;;
635;SDS011;302;50.206;8.196;2023-05-25T10:50:33;4.93;;;4.53;;
635;SDS011;302;50.206;8.196;2023-05-25T10:53:04;4.80;;;4.35;;
635;SDS011;302;50.206;8.196;2023-05-25T10:58:14;5.65;;;4.25;;
635;SDS011;302;50.206;8.196;2023-05-25T11:00:39;4.30;;;3.90;;
635;SDS011;302;50.206;8.196;2023-05-25T11:03:04;4.43;;;4.00;;
635;SDS011;302;50.206;8.196;2023-05-25T11:05:31;4.30;;;3.90;;
635;SDS011;302;50.206;8.196;2023-05-25T11:07:58;5.13;;;4.13;;
635;SDS011;302;50.206;8.196;2023-05-25T11:18:55;6.07;;;4.80;;
635;SDS011;302;50.206;8.196;2023-05-25T11:23:52;3.60;;;3.30;;
635;SDS011;302;50.206;8.196;2023-05-25T11:26:36;3.50;;;3.20;;
635;SDS011;302;50.206;8.196;2023-05-25T11:29:10;4.60;;;4.20;;
635;SDS011;302;50.206;8.196;2023-05-25T11:31:36;6.15;;;3.72;;
635;SDS011;302;50.206;8.196;2023-05-25T11:34:02;4.20;;;3.73;;
635;SDS011;302;50.206;8.196;2023-05-25T11:36:28;4.38;;;4.03;;
635;SDS011;302;50.206;8.196;2023-05-25T11:38:58;3.97;;;3.63;;
635;SDS011;302;50.206;8.196;2023-05-25T11:41:25;4.05;;;3.70;;
635;SDS011;302;50.206;8.196;2023-05-25T11:43:50;3.97;;;3.67;;
635;SDS011;302;50.206;8.196;2023-05-25T11:46:16;3.90;;;3.20;;
635;SDS011;302;50.206;8.196;2023-05-25T11:48:44;3.95;;;3.10;;
635;SDS011;302;50.206;8.196;2023-05-25T11:51:09;3.58;;;3.30;;
635;SDS011;302;50.206;8.196;2023-05-25T11:53:39;3.83;;;3.43;;
635;SDS011;302;50.206;8.196;2023-05-25T11:56:05;5.90;;;3.63;;
635;SDS011;302;50.206;8.196;2023-05-25T11:58:33;5.28;;;3.50;;
635;SDS011;302;50.206;8.196;2023-05-25T12:01:18;4.40;;;4.00;;
635;SDS011;302;50.206;8.196;2023-05-25T12:03:44;4.85;;;4.45;;
635;SDS011;302;50.206;8.196;2023-05-25T12:06:22;6.23;;;3.97;;
635;SDS011;302;50.206;8.196;2023-05-25T12:08:47;3.70;;;3.40;;
635;SDS011;302;50.206;8.196;2023-05-25T12:11:12;4.78;;;3.85;;
635;SDS011;302;50.206;8.196;2023-05-25T12:13:39;4.37;;;4.00;;
635;SDS011;302;50.206;8.196;2023-05-25T12:16:04;4.70;;;4.17;;
635;SDS011;302;50.206;8.196;2023-05-25T12:18:29;5.10;;;3.80;;
635;SDS011;302;50.206;8.196;2023-05-25T12:20:55;5.13;;;3.47;;
635;SDS011;302;50.206;8.196;2023-05-25T12:23:20;4.27;;;3.40;;
635;SDS011;302;50.206;8.196;2023-05-25T12:25:46;5.37;;;3.27;;
635;SDS011;302;50.206;8.196;2023-05-25T12:28:12;4.47;;;4.07;;
635;SDS011;302;50.206;8.196;2023-05-25T12:30:38;3.60;;;3.30;;
635;SDS011;302;50.206;8.196;2023-05-25T12:33:03;4.80;;;3.77;;
635;SDS011;302;50.206;8.196;2023-05-25T12:35:29;3.80;;;3.50;;
635;SDS011;302;50.206;8.196;2023-05-25T12:38:10;6.13;;;4.10;;
635;SDS011;302;50.206;8.196;2023-05-25T12:40:35;3.97;;;3.50;;
635;SDS011;302;50.206;8.196;2023-05-25T12:43:00;3.90;;;3.05;;
635;SDS011;302;50.206;8.196;2023-05-25T12:45:26;5.40;;;3.30;;
635;SDS011;302;50.206;8.196;2023-05-25T12:47:51;3.43;;;3.13;;
635;SDS011;302;50.206;8.196;2023-05-25T12:50:17;4.53;;;4.10;;
635;SDS011;302;50.206;8.196;2023-05-25T12:52:43;3.60;;;3.30;;
635;SDS011;302;50.206;8.196;2023-05-25T12:57:46;4.47;;;3.57;;
635;SDS011;302;50.206;8.196;2023-05-25T13:00:16;6.13;;;3.90;;
635;SDS011;302;50.206;8.196;2023-05-25T13:02:42;4.00;;;3.57;;
635;SDS011;302;50.206;8.196;2023-05-25T13:05:15;6.30;;;3.80;;
635;SDS011;302;50.206;8.196;2023-05-25T13:07:41;5.67;;;3.80;;
635;SDS011;302;50.206;8.196;2023-05-25T13:10:06;4.43;;;3.00;;
635;SDS011;302;50.206;8.196;2023-05-25T13:12:31;4.97;;;3.60;;
635;SDS011;302;50.206;8.196;2023-05-25T13:14:58;3.57;;;3.27;;
635;SDS011;302;50.206;8.196;2023-05-25T13:17:23;4.55;;;3.47;;
635;SDS011;302;50.206;8.196;2023-05-25T13:19:49;3.80;;;3.07;;
635;SDS011;302;50.206;8.196;2023-05-25T13:22:14;2.93;;;2.73;;
635;SDS011;302;50.206;8.196;2023-05-25T13:24:39;4.87;;;3.33;;
635;SDS011;302;50.206;8.196;2023-05-25T13:27:04;3.70;;;3.40;;
635;SDS011;302;50.206;8.196;2023-05-25T13:29:30;3.33;;;3.03;;
635;SDS011;302;50.206;8.196;2023-05-25T13:31:56;2.70;;;2.50;;
635;SDS011;302;50.206;8.196;2023-05-25T13:34:21;6.80;;;3.63;;
635;SDS011;302;50.206;8.196;2023-05-25T13:36:46;3.00;;;2.80;;
635;SDS011;302;50.206;8.196;2023-05-25T13:39:12;2.97;;;2.67;;
635;SDS011;302;50.206;8.196;2023-05-25T13:41:38;2.87;;;2.67;;
635;SDS011;302;50.206;8.196;2023-05-25T13:44:04;4.00;;;2.70;;
635;SDS011;302;50.206;8.196;2023-05-25T13:46:29;3.53;;;2.93;;
635;SDS011;302;50.206;8.196;2023-05-25T13:48:54;3.27;;;2.97;;
635;SDS011;302;50.206;8.196;2023-05-25T13:51:19;3.20;;;3.00;;
635;SDS011;302;50.206;8.196;2023-05-25T13:53:44;3.40;;;3.10;;
635;SDS011;302;50.206;8.196;2023-05-25T13:56:10;3.10;;;2.80;;
635;SDS011;302;50.206;8.196;2023-05-25T13:58:36;3.70;;;3.27;;
635;SDS011;302;50.206;8.196;2023-05-25T14:01:01;3.57;;;3.27;;
635;SDS011;302;50.206;8.196;2023-05-25T14:03:27;3.40;;;3.13;;
635;SDS011;302;50.206;8.196;2023-05-25T14:05:52;5.40;;;4.47;;
635;SDS011;302;50.206;8.196;2023-05-25T14:08:17;3.10;;;2.90;;
635;SDS011;302;50.206;8.196;2023-05-25T14:10:43;2.87;;;2.73;;
635;SDS011;302;50.206;8.196;2023-05-25T14:13:08;4.10;;;3.80;;
635;SDS011;302;50.206;8.196;2023-05-25T14:15:33;3.50;;;3.30;;
635;SDS011;302;50.206;8.196;2023-05-25T14:17:58;3.70;;;3.50;;
635;SDS011;302;50.206;8.196;2023-05-25T14:20:23;3.70;;;3.40;;
635;SDS011;302;50.206;8.196;2023-05-25T14:22:53;4.55;;;3.65;;
635;SDS011;302;50.206;8.196;2023-05-25T14:25:18;3.80;;;3.50;;
635;SDS011;302;50.206;8.196;2023-05-25T14:27:43;3.90;;;3.60;;
635;SDS011;302;50.206;8.196;2023-05-25T14:30:09;3.10;;;2.90;;
635;SDS011;302;50.206;8.196;2023-05-25T14:32:34;4.18;;;3.88;;
635;SDS011;302;50.206;8.196;2023-05-25T14:34:59;4.45;;;3.67;;
635;SDS011;302;50.206;8.196;2023-05-25T14:37:24;4.10;;;3.80;;
635;SDS011;302;50.206;8.196;2023-05-25T14:39:49;4.10;;;3.80;;
635;SDS011;302;50.206;8.196;2023-05-25T14:42:15;3.90;;;3.60;;
635;SDS011;302;50.206;8.196;2023-05-25T14:44:40;4.03;;;3.72;;
635;SDS011;302;50.206;8.196;2023-05-25T14:47:05;4.70;;;4.40;;
635;SDS011;302;50.206;8.196;2023-05-25T14:49:30;3.92;;;3.63;;
635;SDS011;302;50.206;8.196;2023-05-25T14:51:56;4.22;;;3.92;;
635;SDS011;302;50.206;8.196;2023-05-25T14:54:21;4.77;;;3.70;;
635;SDS011;302;50.206;8.196;2023-05-25T14:56:46;4.20;;;3.90;;
635;SDS011;302;50.206;8.196;2023-05-25T14:59:11;3.70;;;3.40;;
635;SDS011;302;50.206;8.196;2023-05-25T15:01:37;4.35;;;3.95;;
635;SDS011;302;50.206;8.196;2023-05-25T15:04:02;4.40;;;4.10;;
635;SDS011;302;50.206;8.196;2023-05-25T15:06:27;4.10;;;3.80;;
635;SDS011;302;50.206;8.196;2023-05-25T15:08:52;4.43;;;4.13;;
635;SDS011;302;50.206;8.196;2023-05-25T15:11:17;4.37;;;4.07;;
635;SDS011;302;50.206;8.196;2023-05-25T15:13:42;4.50;;;3.87;;
635;SDS011;302;50.206;8.196;2023-05-25T15:16:14;4.33;;;3.97;;
635;SDS011;302;50.206;8.196;2023-05-25T15:18:40;4.13;;;3.72;;
635;SDS011;302;50.206;8.196;2023-05-25T15:21:05;4.00;;;3.70;;
635;SDS011;302;50.206;8.196;2023-05-25T15:23:30;4.20;;;3.85;;
635;SDS011;302;50.206;8.196;2023-05-25T15:25:56;4.20;;;3.97;;
635;SDS011;302;50.206;8.196;2023-05-25T15:28:21;4.18;;;3.67;;
635;SDS011;302;50.206;8.196;2023-05-25T15:30:46;4.28;;;3.97;;
635;SDS011;302;50.206;8.196;2023-05-25T15:33:12;4.00;;;3.70;;
635;SDS011;302;50.206;8.196;2023-05-25T15:35:37;4.30;;;4.00;;
635;SDS011;302;50.206;8.196;2023-05-25T15:38:02;3.88;;;3.58;;
635;SDS011;302;50.206;8.196;2023-05-25T15:40:28;4.22;;;3.92;;
635;SDS011;302;50.206;8.196;2023-05-25T15:42:53;4.57;;;3.97;;
635;SDS011;302;50.206;8.196;2023-05-25T15:45:18;4.07;;;3.78;;
635;SDS011;302;50.206;8.196;2023-05-25T15:47:45;4.65;;;4.35;;
635;SDS011;302;50.206;8.196;2023-05-25T15:50:10;4.10;;;3.80;;
635;SDS011;302;50.206;8.196;2023-05-25T15:52:35;3.67;;;3.47;;
635;SDS011;302;50.206;8.196;2023-05-25T15:55:00;4.20;;;3.90;;
635;SDS011;302;50.206;8.196;2023-05-25T15:57:26;4.30;;;4.00;;
635;SDS011;302;50.206;8.196;2023-05-25T15:59:51;3.70;;;3.50;;
635;SDS011;302;50.206;8.196;2023-05-25T16:02:16;3.70;;;3.40;;